Aérodrome :
LOGIN :

S'inscrire | Disclaimer

   EN    FR    IT 

 










Légende :    VFR   VFR Marginal   IFR   IFR Intensif   IFR Très Intensif
Visi : 
Plafond : 
>= 8 km
>= 3000ft
5 à 8 km
1000 à 3000 ft
1500m à 5 km
500 à 1000 ft
800 à 1500m
200 à 500 ft
< 800m
< 200 ft
Symboles :   Orages  Brouillard  Fortes neiges  Fortes précipitations  Vent > 20 kt
SIGMETs :   Divers  Orages  Givrage  Turbulence  Onde Orograph.  Cendres Volcan.







- Altitude de l'aérodrome : 580 ft
- Voir les cartes d'approche


LFOA - Avord

DERNIER METAR :
  • 191230Z AUTO 02005KT 330V080 CAVOK 27/09 Q1022

METARs EXPIRÉS :
  • 191200Z AUTO VRB04KT CAVOK 27/09 Q1023
  • 191130Z AUTO 35005KT 310V040 CAVOK 26/09 Q1023
  • 191100Z AUTO 28004KT 210V360 CAVOK 26/09 Q1023 NOSIG
  • 191030Z AUTO 28003KT 220V030 CAVOK 26/08 Q1023 NOSIG
  • 191000Z AUTO 34003KT 290V080 CAVOK 25/09 Q1023 NOSIG

TAF TAF LFOA
Valide du 19 à 09h jusqu'au 20 à 09h UTC


190800Z 1909/2009 VRB02KT CAVOK
BECMG 1910/1912 31010KT
BECMG 1920/1922 VRB02KT
Pas de NOTAMs connus pour ce terrain.



MET'MAP, la Météo Aéronautique d'un coup d'oeil ! - Copyright ORBIFLY Décembre 2007 - Disclaimer

ORBIFLY MET'MAP TEAM :

Programmation & Développement : Alexandra Zaïnal
Conception & Développement : Baudouin d'Aumeries
Co-Programmation & Développement : Marc-Olivier Méhu
Soutien technique & logistique : Manuel Goepfert

Contact : metmap@orbifly.com




SOURCES & CREDITS :

   NOAA